sensor_id;sensor_type;location;lat;lon;timestamp;P1;durP1;ratioP1;P2;durP2;ratioP2
63394;SDS011;49531;-34.520;150.798;2022-11-15T00:01:14;17.63;;;2.10;;
63394;SDS011;49531;-34.520;150.798;2022-11-15T00:03:45;9.77;;;2.03;;
63394;SDS011;49531;-34.520;150.798;2022-11-15T00:06:17;8.98;;;1.90;;
63394;SDS011;49531;-34.520;150.798;2022-11-15T00:08:45;13.85;;;2.00;;
63394;SDS011;49531;-34.520;150.798;2022-11-15T00:11:13;12.70;;;1.90;;
63394;SDS011;49531;-34.520;150.798;2022-11-15T00:13:41;12.20;;;2.00;;
63394;SDS011;49531;-34.520;150.798;2022-11-15T00:16:09;11.90;;;1.83;;
63394;SDS011;49531;-34.520;150.798;2022-11-15T00:18:37;9.50;;;1.45;;
63394;SDS011;49531;-34.520;150.798;2022-11-15T00:21:07;8.13;;;1.95;;
63394;SDS011;49531;-34.520;150.798;2022-11-15T00:23:38;6.38;;;1.50;;
63394;SDS011;49531;-34.520;150.798;2022-11-15T00:26:06;11.18;;;1.88;;
63394;SDS011;49531;-34.520;150.798;2022-11-15T00:28:38;8.10;;;1.65;;
63394;SDS011;49531;-34.520;150.798;2022-11-15T00:31:07;9.48;;;2.10;;
63394;SDS011;49531;-34.520;150.798;2022-11-15T00:33:39;9.63;;;2.00;;
63394;SDS011;49531;-34.520;150.798;2022-11-15T00:36:09;10.88;;;1.80;;
63394;SDS011;49531;-34.520;150.798;2022-11-15T00:38:38;10.32;;;1.80;;
63394;SDS011;49531;-34.520;150.798;2022-11-15T00:41:07;10.52;;;1.80;;
63394;SDS011;49531;-34.520;150.798;2022-11-15T00:43:35;14.13;;;2.35;;
63394;SDS011;49531;-34.520;150.798;2022-11-15T00:46:05;11.05;;;2.38;;
63394;SDS011;49531;-34.520;150.798;2022-11-15T00:48:35;11.10;;;2.25;;
63394;SDS011;49531;-34.520;150.798;2022-11-15T00:51:03;10.98;;;1.98;;
63394;SDS011;49531;-34.520;150.798;2022-11-15T00:53:32;12.38;;;2.10;;
63394;SDS011;49531;-34.520;150.798;2022-11-15T00:56:00;15.48;;;2.20;;
63394;SDS011;49531;-34.520;150.798;2022-11-15T00:58:29;11.45;;;2.00;;
63394;SDS011;49531;-34.520;150.798;2022-11-15T01:01:04;12.30;;;2.00;;
63394;SDS011;49531;-34.520;150.798;2022-11-15T01:03:35;13.45;;;2.10;;
63394;SDS011;49531;-34.520;150.798;2022-11-15T01:06:04;12.45;;;2.10;;
63394;SDS011;49531;-34.520;150.798;2022-11-15T01:08:33;9.88;;;2.00;;
63394;SDS011;49531;-34.520;150.798;2022-11-15T01:11:04;14.27;;;2.50;;
63394;SDS011;49531;-34.520;150.798;2022-11-15T01:13:35;12.85;;;2.33;;
63394;SDS011;49531;-34.520;150.798;2022-11-15T01:16:06;11.48;;;2.03;;
63394;SDS011;49531;-34.520;150.798;2022-11-15T01:18:39;14.80;;;2.00;;
63394;SDS011;49531;-34.520;150.798;2022-11-15T01:21:09;9.15;;;2.03;;
63394;SDS011;49531;-34.520;150.798;2022-11-15T01:23:39;6.97;;;1.70;;
63394;SDS011;49531;-34.520;150.798;2022-11-15T01:26:09;12.48;;;2.30;;
63394;SDS011;49531;-34.520;150.798;2022-11-15T01:28:38;8.50;;;2.03;;
63394;SDS011;49531;-34.520;150.798;2022-11-15T01:31:13;11.18;;;1.90;;
63394;SDS011;49531;-34.520;150.798;2022-11-15T01:33:44;10.48;;;2.22;;
63394;SDS011;49531;-34.520;150.798;2022-11-15T01:36:14;6.88;;;2.00;;
63394;SDS011;49531;-34.520;150.798;2022-11-15T01:38:44;10.23;;;2.22;;
63394;SDS011;49531;-34.520;150.798;2022-11-15T01:41:17;13.20;;;2.25;;
63394;SDS011;49531;-34.520;150.798;2022-11-15T01:43:51;12.57;;;2.35;;
63394;SDS011;49531;-34.520;150.798;2022-11-15T01:46:23;13.48;;;1.85;;
63394;SDS011;49531;-34.520;150.798;2022-11-15T01:48:57;8.93;;;2.08;;
63394;SDS011;49531;-34.520;150.798;2022-11-15T01:51:29;11.77;;;2.08;;
63394;SDS011;49531;-34.520;150.798;2022-11-15T01:54:02;9.90;;;1.83;;
63394;SDS011;49531;-34.520;150.798;2022-11-15T01:56:36;10.15;;;2.10;;
63394;SDS011;49531;-34.520;150.798;2022-11-15T01:59:12;8.82;;;2.03;;
63394;SDS011;49531;-34.520;150.798;2022-11-15T02:01:40;13.52;;;2.00;;
63394;SDS011;49531;-34.520;150.798;2022-11-15T02:04:11;13.45;;;2.20;;
63394;SDS011;49531;-34.520;150.798;2022-11-15T02:06:43;8.32;;;1.92;;
63394;SDS011;49531;-34.520;150.798;2022-11-15T02:09:13;6.97;;;1.95;;
63394;SDS011;49531;-34.520;150.798;2022-11-15T02:11:41;9.57;;;2.00;;
63394;SDS011;49531;-34.520;150.798;2022-11-15T02:14:10;9.20;;;1.83;;
63394;SDS011;49531;-34.520;150.798;2022-11-15T02:16:44;11.38;;;2.15;;
63394;SDS011;49531;-34.520;150.798;2022-11-15T02:19:40;12.10;;;1.95;;
63394;SDS011;49531;-34.520;150.798;2022-11-15T02:22:42;12.90;;;2.10;;
63394;SDS011;49531;-34.520;150.798;2022-11-15T02:25:48;12.23;;;2.20;;
63394;SDS011;49531;-34.520;150.798;2022-11-15T02:34:32;10.40;;;2.15;;
63394;SDS011;49531;-34.520;150.798;2022-11-15T02:37:16;12.40;;;2.08;;
63394;SDS011;49531;-34.520;150.798;2022-11-15T02:42:45;10.15;;;2.15;;
63394;SDS011;49531;-34.520;150.798;2022-11-15T02:45:35;7.65;;;1.75;;
63394;SDS011;49531;-34.520;150.798;2022-11-15T02:48:06;8.38;;;1.80;;
63394;SDS011;49531;-34.520;150.798;2022-11-15T02:50:35;12.75;;;2.08;;
63394;SDS011;49531;-34.520;150.798;2022-11-15T02:53:04;13.95;;;2.38;;
63394;SDS011;49531;-34.520;150.798;2022-11-15T02:55:36;13.48;;;2.00;;
63394;SDS011;49531;-34.520;150.798;2022-11-15T02:58:17;11.35;;;2.30;;
63394;SDS011;49531;-34.520;150.798;2022-11-15T03:01:10;9.98;;;2.00;;
63394;SDS011;49531;-34.520;150.798;2022-11-15T03:03:56;17.52;;;2.30;;
63394;SDS011;49531;-34.520;150.798;2022-11-15T03:06:48;30.95;;;2.33;;
63394;SDS011;49531;-34.520;150.798;2022-11-15T03:09:35;11.02;;;2.03;;
63394;SDS011;49531;-34.520;150.798;2022-11-15T03:12:25;14.32;;;2.30;;
63394;SDS011;49531;-34.520;150.798;2022-11-15T03:15:03;11.93;;;1.90;;
63394;SDS011;49531;-34.520;150.798;2022-11-15T03:17:48;10.40;;;2.00;;
63394;SDS011;49531;-34.520;150.798;2022-11-15T03:20:22;13.73;;;2.28;;
63394;SDS011;49531;-34.520;150.798;2022-11-15T03:22:53;7.70;;;1.88;;
63394;SDS011;49531;-34.520;150.798;2022-11-15T03:25:27;14.40;;;1.90;;
63394;SDS011;49531;-34.520;150.798;2022-11-15T03:27:57;15.68;;;2.70;;
63394;SDS011;49531;-34.520;150.798;2022-11-15T03:30:30;20.45;;;2.53;;
63394;SDS011;49531;-34.520;150.798;2022-11-15T03:33:02;15.65;;;2.45;;
63394;SDS011;49531;-34.520;150.798;2022-11-15T03:35:33;10.75;;;2.03;;
63394;SDS011;49531;-34.520;150.798;2022-11-15T03:38:19;14.90;;;1.90;;
63394;SDS011;49531;-34.520;150.798;2022-11-15T03:40:54;13.82;;;2.30;;
63394;SDS011;49531;-34.520;150.798;2022-11-15T03:43:30;9.15;;;2.00;;
63394;SDS011;49531;-34.520;150.798;2022-11-15T03:46:20;11.10;;;2.00;;
63394;SDS011;49531;-34.520;150.798;2022-11-15T03:49:04;10.65;;;2.03;;
63394;SDS011;49531;-34.520;150.798;2022-11-15T03:51:37;10.20;;;1.90;;
63394;SDS011;49531;-34.520;150.798;2022-11-15T03:54:05;11.88;;;2.05;;
63394;SDS011;49531;-34.520;150.798;2022-11-15T03:56:33;9.90;;;2.00;;
63394;SDS011;49531;-34.520;150.798;2022-11-15T03:59:02;9.88;;;2.00;;
63394;SDS011;49531;-34.520;150.798;2022-11-15T04:01:30;10.93;;;2.22;;
63394;SDS011;49531;-34.520;150.798;2022-11-15T04:03:58;9.70;;;1.92;;
63394;SDS011;49531;-34.520;150.798;2022-11-15T04:06:26;9.40;;;2.05;;
63394;SDS011;49531;-34.520;150.798;2022-11-15T04:08:54;10.45;;;1.83;;
63394;SDS011;49531;-34.520;150.798;2022-11-15T04:11:22;11.30;;;2.10;;
63394;SDS011;49531;-34.520;150.798;2022-11-15T04:13:51;13.48;;;2.22;;
63394;SDS011;49531;-34.520;150.798;2022-11-15T04:16:19;12.82;;;2.13;;
63394;SDS011;49531;-34.520;150.798;2022-11-15T04:18:47;9.10;;;2.10;;
63394;SDS011;49531;-34.520;150.798;2022-11-15T04:21:35;12.05;;;2.30;;
63394;SDS011;49531;-34.520;150.798;2022-11-15T04:24:14;14.60;;;2.00;;
63394;SDS011;49531;-34.520;150.798;2022-11-15T04:26:42;12.02;;;2.30;;
63394;SDS011;49531;-34.520;150.798;2022-11-15T04:29:11;9.95;;;2.20;;
63394;SDS011;49531;-34.520;150.798;2022-11-15T04:31:51;11.23;;;1.80;;
63394;SDS011;49531;-34.520;150.798;2022-11-15T04:34:19;9.98;;;2.03;;
63394;SDS011;49531;-34.520;150.798;2022-11-15T04:36:47;10.38;;;1.95;;
63394;SDS011;49531;-34.520;150.798;2022-11-15T04:39:27;11.55;;;2.00;;
63394;SDS011;49531;-34.520;150.798;2022-11-15T04:41:55;11.38;;;1.80;;
63394;SDS011;49531;-34.520;150.798;2022-11-15T04:44:24;9.43;;;1.95;;
63394;SDS011;49531;-34.520;150.798;2022-11-15T04:46:52;6.90;;;1.80;;
63394;SDS011;49531;-34.520;150.798;2022-11-15T04:49:20;7.63;;;1.92;;
63394;SDS011;49531;-34.520;150.798;2022-11-15T04:51:48;10.90;;;2.08;;
63394;SDS011;49531;-34.520;150.798;2022-11-15T04:54:16;10.18;;;2.55;;
63394;SDS011;49531;-34.520;150.798;2022-11-15T04:56:44;9.27;;;2.08;;
63394;SDS011;49531;-34.520;150.798;2022-11-15T04:59:12;7.72;;;1.88;;
63394;SDS011;49531;-34.520;150.798;2022-11-15T05:01:40;8.50;;;2.00;;
63394;SDS011;49531;-34.520;150.798;2022-11-15T05:04:08;9.30;;;2.10;;
63394;SDS011;49531;-34.520;150.798;2022-11-15T05:06:46;8.90;;;2.20;;
63394;SDS011;49531;-34.520;150.798;2022-11-15T05:09:16;7.22;;;1.80;;
63394;SDS011;49531;-34.520;150.798;2022-11-15T05:11:45;10.45;;;2.22;;
63394;SDS011;49531;-34.520;150.798;2022-11-15T05:14:14;11.23;;;2.33;;
63394;SDS011;49531;-34.520;150.798;2022-11-15T05:16:43;12.07;;;1.77;;
63394;SDS011;49531;-34.520;150.798;2022-11-15T05:19:11;13.32;;;2.30;;
63394;SDS011;49531;-34.520;150.798;2022-11-15T05:21:39;10.02;;;1.95;;
63394;SDS011;49531;-34.520;150.798;2022-11-15T05:24:09;11.38;;;2.28;;
63394;SDS011;49531;-34.520;150.798;2022-11-15T05:26:37;11.68;;;1.95;;
63394;SDS011;49531;-34.520;150.798;2022-11-15T05:29:05;8.63;;;2.00;;
63394;SDS011;49531;-34.520;150.798;2022-11-15T05:31:39;9.55;;;1.92;;
63394;SDS011;49531;-34.520;150.798;2022-11-15T05:34:08;9.05;;;1.83;;
63394;SDS011;49531;-34.520;150.798;2022-11-15T05:36:37;7.93;;;1.92;;
63394;SDS011;49531;-34.520;150.798;2022-11-15T05:39:08;9.70;;;2.17;;
63394;SDS011;49531;-34.520;150.798;2022-11-15T05:41:37;9.65;;;1.80;;
63394;SDS011;49531;-34.520;150.798;2022-11-15T05:44:11;11.23;;;2.05;;
63394;SDS011;49531;-34.520;150.798;2022-11-15T05:46:44;9.68;;;2.42;;
63394;SDS011;49531;-34.520;150.798;2022-11-15T05:49:15;11.93;;;2.30;;
63394;SDS011;49531;-34.520;150.798;2022-11-15T05:51:46;10.65;;;2.00;;
63394;SDS011;49531;-34.520;150.798;2022-11-15T05:54:15;7.35;;;1.90;;
63394;SDS011;49531;-34.520;150.798;2022-11-15T05:56:44;8.70;;;2.00;;
63394;SDS011;49531;-34.520;150.798;2022-11-15T05:59:12;9.23;;;2.03;;
63394;SDS011;49531;-34.520;150.798;2022-11-15T06:01:41;9.90;;;1.88;;
63394;SDS011;49531;-34.520;150.798;2022-11-15T06:04:09;9.60;;;2.03;;
63394;SDS011;49531;-34.520;150.798;2022-11-15T06:06:37;14.88;;;2.03;;
63394;SDS011;49531;-34.520;150.798;2022-11-15T06:09:05;7.88;;;1.63;;
63394;SDS011;49531;-34.520;150.798;2022-11-15T06:11:33;10.40;;;1.80;;
63394;SDS011;49531;-34.520;150.798;2022-11-15T06:14:01;11.55;;;1.92;;
63394;SDS011;49531;-34.520;150.798;2022-11-15T06:16:34;9.35;;;1.80;;
63394;SDS011;49531;-34.520;150.798;2022-11-15T06:19:02;11.70;;;2.03;;
63394;SDS011;49531;-34.520;150.798;2022-11-15T06:21:32;11.70;;;1.60;;
63394;SDS011;49531;-34.520;150.798;2022-11-15T06:24:00;6.22;;;1.85;;
63394;SDS011;49531;-34.520;150.798;2022-11-15T06:26:28;6.80;;;1.60;;
63394;SDS011;49531;-34.520;150.798;2022-11-15T06:28:56;5.80;;;1.65;;
63394;SDS011;49531;-34.520;150.798;2022-11-15T06:31:24;7.45;;;1.50;;
63394;SDS011;49531;-34.520;150.798;2022-11-15T06:33:53;7.70;;;1.73;;
63394;SDS011;49531;-34.520;150.798;2022-11-15T06:36:21;7.88;;;1.80;;
63394;SDS011;49531;-34.520;150.798;2022-11-15T06:38:49;5.22;;;1.40;;
63394;SDS011;49531;-34.520;150.798;2022-11-15T06:41:17;7.03;;;1.75;;
63394;SDS011;49531;-34.520;150.798;2022-11-15T06:43:46;5.78;;;1.70;;
63394;SDS011;49531;-34.520;150.798;2022-11-15T06:46:14;6.30;;;1.83;;
63394;SDS011;49531;-34.520;150.798;2022-11-15T06:48:42;5.93;;;1.70;;
63394;SDS011;49531;-34.520;150.798;2022-11-15T06:51:11;5.22;;;1.50;;
63394;SDS011;49531;-34.520;150.798;2022-11-15T06:53:39;8.35;;;1.73;;
63394;SDS011;49531;-34.520;150.798;2022-11-15T06:56:07;6.03;;;1.60;;
63394;SDS011;49531;-34.520;150.798;2022-11-15T06:58:35;5.53;;;1.70;;
63394;SDS011;49531;-34.520;150.798;2022-11-15T07:01:05;6.63;;;1.70;;
63394;SDS011;49531;-34.520;150.798;2022-11-15T07:03:35;5.70;;;1.58;;
63394;SDS011;49531;-34.520;150.798;2022-11-15T07:06:05;5.28;;;1.60;;
63394;SDS011;49531;-34.520;150.798;2022-11-15T07:08:35;6.72;;;1.83;;
63394;SDS011;49531;-34.520;150.798;2022-11-15T07:11:04;6.43;;;1.60;;
63394;SDS011;49531;-34.520;150.798;2022-11-15T07:13:34;5.00;;;1.67;;
63394;SDS011;49531;-34.520;150.798;2022-11-15T07:16:04;8.23;;;1.85;;
63394;SDS011;49531;-34.520;150.798;2022-11-15T07:18:35;6.22;;;1.63;;
63394;SDS011;49531;-34.520;150.798;2022-11-15T07:21:04;8.20;;;1.88;;
63394;SDS011;49531;-34.520;150.798;2022-11-15T07:23:36;8.88;;;1.90;;
63394;SDS011;49531;-34.520;150.798;2022-11-15T07:26:06;6.05;;;1.85;;
63394;SDS011;49531;-34.520;150.798;2022-11-15T07:28:35;8.95;;;2.15;;
63394;SDS011;49531;-34.520;150.798;2022-11-15T07:31:03;6.40;;;1.75;;
63394;SDS011;49531;-34.520;150.798;2022-11-15T07:33:33;10.80;;;2.03;;
63394;SDS011;49531;-34.520;150.798;2022-11-15T07:36:02;6.10;;;1.85;;
63394;SDS011;49531;-34.520;150.798;2022-11-15T07:38:33;5.35;;;2.00;;
63394;SDS011;49531;-34.520;150.798;2022-11-15T07:41:03;8.95;;;2.00;;
63394;SDS011;49531;-34.520;150.798;2022-11-15T07:43:32;8.25;;;2.33;;
63394;SDS011;49531;-34.520;150.798;2022-11-15T07:46:05;8.00;;;2.13;;
63394;SDS011;49531;-34.520;150.798;2022-11-15T07:48:35;5.93;;;2.00;;
63394;SDS011;49531;-34.520;150.798;2022-11-15T07:51:06;5.97;;;2.10;;
63394;SDS011;49531;-34.520;150.798;2022-11-15T07:53:38;5.95;;;1.83;;
63394;SDS011;49531;-34.520;150.798;2022-11-15T07:56:07;5.70;;;1.60;;
63394;SDS011;49531;-34.520;150.798;2022-11-15T07:58:35;7.03;;;1.90;;
63394;SDS011;49531;-34.520;150.798;2022-11-15T08:01:04;7.10;;;1.80;;
63394;SDS011;49531;-34.520;150.798;2022-11-15T08:03:34;7.55;;;1.88;;
63394;SDS011;49531;-34.520;150.798;2022-11-15T08:06:03;6.15;;;2.00;;
63394;SDS011;49531;-34.520;150.798;2022-11-15T08:08:31;5.97;;;2.00;;
63394;SDS011;49531;-34.520;150.798;2022-11-15T08:11:00;5.70;;;1.60;;
63394;SDS011;49531;-34.520;150.798;2022-11-15T08:13:28;6.18;;;1.48;;
63394;SDS011;49531;-34.520;150.798;2022-11-15T08:15:58;3.92;;;1.40;;
63394;SDS011;49531;-34.520;150.798;2022-11-15T08:18:27;5.95;;;1.73;;
63394;SDS011;49531;-34.520;150.798;2022-11-15T08:20:57;6.20;;;1.70;;
63394;SDS011;49531;-34.520;150.798;2022-11-15T08:23:27;5.88;;;1.70;;
63394;SDS011;49531;-34.520;150.798;2022-11-15T08:25:59;4.68;;;1.60;;
63394;SDS011;49531;-34.520;150.798;2022-11-15T08:28:30;5.90;;;1.83;;
63394;SDS011;49531;-34.520;150.798;2022-11-15T08:30:58;4.05;;;1.63;;
63394;SDS011;49531;-34.520;150.798;2022-11-15T08:33:27;6.55;;;1.83;;
63394;SDS011;49531;-34.520;150.798;2022-11-15T08:35:57;6.95;;;1.50;;
63394;SDS011;49531;-34.520;150.798;2022-11-15T08:38:27;6.97;;;1.80;;
63394;SDS011;49531;-34.520;150.798;2022-11-15T08:41:01;4.38;;;1.50;;
63394;SDS011;49531;-34.520;150.798;2022-11-15T08:43:32;6.95;;;1.85;;
63394;SDS011;49531;-34.520;150.798;2022-11-15T08:46:00;5.80;;;1.70;;
63394;SDS011;49531;-34.520;150.798;2022-11-15T08:48:29;5.82;;;1.88;;
63394;SDS011;49531;-34.520;150.798;2022-11-15T08:50:57;9.05;;;1.67;;
63394;SDS011;49531;-34.520;150.798;2022-11-15T08:53:25;6.47;;;1.83;;
63394;SDS011;49531;-34.520;150.798;2022-11-15T08:55:53;5.85;;;1.77;;
63394;SDS011;49531;-34.520;150.798;2022-11-15T08:58:22;5.57;;;1.70;;
63394;SDS011;49531;-34.520;150.798;2022-11-15T09:00:50;6.05;;;1.67;;
63394;SDS011;49531;-34.520;150.798;2022-11-15T09:03:18;5.40;;;1.60;;
63394;SDS011;49531;-34.520;150.798;2022-11-15T09:05:46;6.22;;;1.80;;
63394;SDS011;49531;-34.520;150.798;2022-11-15T09:08:14;7.20;;;1.98;;
63394;SDS011;49531;-34.520;150.798;2022-11-15T09:10:42;7.50;;;1.70;;
63394;SDS011;49531;-34.520;150.798;2022-11-15T09:13:10;4.97;;;1.50;;
63394;SDS011;49531;-34.520;150.798;2022-11-15T09:15:39;5.65;;;1.80;;
63394;SDS011;49531;-34.520;150.798;2022-11-15T09:18:07;4.13;;;1.50;;
63394;SDS011;49531;-34.520;150.798;2022-11-15T09:20:35;6.63;;;1.85;;
63394;SDS011;49531;-34.520;150.798;2022-11-15T09:23:04;7.05;;;1.60;;
63394;SDS011;49531;-34.520;150.798;2022-11-15T09:25:32;4.35;;;1.80;;
63394;SDS011;49531;-34.520;150.798;2022-11-15T09:28:00;4.20;;;1.60;;
63394;SDS011;49531;-34.520;150.798;2022-11-15T09:30:33;3.67;;;1.48;;
63394;SDS011;49531;-34.520;150.798;2022-11-15T09:33:06;7.65;;;1.67;;
63394;SDS011;49531;-34.520;150.798;2022-11-15T09:35:35;5.32;;;1.58;;
63394;SDS011;49531;-34.520;150.798;2022-11-15T09:38:03;4.57;;;1.40;;
63394;SDS011;49531;-34.520;150.798;2022-11-15T09:40:31;3.47;;;1.50;;
63394;SDS011;49531;-34.520;150.798;2022-11-15T09:43:05;5.53;;;1.42;;
63394;SDS011;49531;-34.520;150.798;2022-11-15T09:48:48;2.60;;;1.10;;
63394;SDS011;49531;-34.520;150.798;2022-11-15T09:51:30;8.02;;;1.50;;
63394;SDS011;49531;-34.520;150.798;2022-11-15T09:54:19;2.15;;;1.10;;
63394;SDS011;49531;-34.520;150.798;2022-11-15T09:57:14;3.40;;;1.33;;
63394;SDS011;49531;-34.520;150.798;2022-11-15T10:00:00;4.50;;;1.50;;
63394;SDS011;49531;-34.520;150.798;2022-11-15T10:02:41;2.80;;;1.20;;
63394;SDS011;49531;-34.520;150.798;2022-11-15T10:05:29;5.57;;;1.10;;
63394;SDS011;49531;-34.520;150.798;2022-11-15T10:08:03;3.72;;;1.10;;
63394;SDS011;49531;-34.520;150.798;2022-11-15T10:10:56;2.65;;;1.00;;
63394;SDS011;49531;-34.520;150.798;2022-11-15T10:13:29;2.13;;;1.10;;
63394;SDS011;49531;-34.520;150.798;2022-11-15T10:16:19;2.75;;;1.30;;
63394;SDS011;49531;-34.520;150.798;2022-11-15T10:19:21;4.97;;;1.27;;
63394;SDS011;49531;-34.520;150.798;2022-11-15T10:22:05;2.60;;;1.20;;
63394;SDS011;49531;-34.520;150.798;2022-11-15T10:24:57;4.43;;;1.20;;
63394;SDS011;49531;-34.520;150.798;2022-11-15T10:27:38;4.50;;;1.13;;
63394;SDS011;49531;-34.520;150.798;2022-11-15T10:30:10;3.70;;;1.08;;
63394;SDS011;49531;-34.520;150.798;2022-11-15T10:32:42;2.10;;;1.10;;
63394;SDS011;49531;-34.520;150.798;2022-11-15T10:35:19;2.13;;;1.10;;
63394;SDS011;49531;-34.520;150.798;2022-11-15T10:37:51;2.47;;;1.10;;
63394;SDS011;49531;-34.520;150.798;2022-11-15T10:40:31;2.17;;;0.95;;
63394;SDS011;49531;-34.520;150.798;2022-11-15T10:43:13;3.95;;;1.08;;
63394;SDS011;49531;-34.520;150.798;2022-11-15T10:45:44;2.35;;;1.00;;
63394;SDS011;49531;-34.520;150.798;2022-11-15T10:48:20;3.78;;;0.90;;
63394;SDS011;49531;-34.520;150.798;2022-11-15T10:50:49;2.00;;;0.93;;
63394;SDS011;49531;-34.520;150.798;2022-11-15T10:53:21;3.40;;;0.98;;
63394;SDS011;49531;-34.520;150.798;2022-11-15T10:55:54;3.17;;;1.02;;
63394;SDS011;49531;-34.520;150.798;2022-11-15T10:58:30;2.55;;;0.90;;
63394;SDS011;49531;-34.520;150.798;2022-11-15T11:01:13;2.25;;;0.90;;
63394;SDS011;49531;-34.520;150.798;2022-11-15T11:03:57;2.10;;;1.08;;
63394;SDS011;49531;-34.520;150.798;2022-11-15T11:06:46;3.28;;;0.98;;
63394;SDS011;49531;-34.520;150.798;2022-11-15T11:09:28;1.73;;;0.90;;
63394;SDS011;49531;-34.520;150.798;2022-11-15T11:12:00;2.15;;;0.90;;
63394;SDS011;49531;-34.520;150.798;2022-11-15T11:14:31;2.28;;;1.00;;
63394;SDS011;49531;-34.520;150.798;2022-11-15T11:17:12;1.67;;;0.90;;
63394;SDS011;49531;-34.520;150.798;2022-11-15T11:20:00;1.65;;;0.77;;
63394;SDS011;49531;-34.520;150.798;2022-11-15T11:28:39;2.20;;;0.73;;
63394;SDS011;49531;-34.520;150.798;2022-11-15T11:31:42;1.67;;;0.88;;
63394;SDS011;49531;-34.520;150.798;2022-11-15T11:43:09;2.88;;;0.98;;
63394;SDS011;49531;-34.520;150.798;2022-11-15T11:48:41;2.33;;;0.80;;
63394;SDS011;49531;-34.520;150.798;2022-11-15T11:51:15;1.30;;;0.80;;
63394;SDS011;49531;-34.520;150.798;2022-11-15T11:53:58;1.92;;;0.80;;
63394;SDS011;49531;-34.520;150.798;2022-11-15T11:56:37;2.15;;;0.90;;
63394;SDS011;49531;-34.520;150.798;2022-11-15T11:59:16;1.27;;;0.70;;
63394;SDS011;49531;-34.520;150.798;2022-11-15T12:02:14;1.58;;;0.88;;
63394;SDS011;49531;-34.520;150.798;2022-11-15T12:04:50;2.03;;;0.80;;
63394;SDS011;49531;-34.520;150.798;2022-11-15T12:07:24;1.50;;;0.80;;
63394;SDS011;49531;-34.520;150.798;2022-11-15T12:09:59;2.25;;;0.90;;
63394;SDS011;49531;-34.520;150.798;2022-11-15T12:15:42;1.58;;;0.80;;
63394;SDS011;49531;-34.520;150.798;2022-11-15T12:18:17;1.77;;;0.80;;
63394;SDS011;49531;-34.520;150.798;2022-11-15T12:20:56;1.58;;;0.77;;
63394;SDS011;49531;-34.520;150.798;2022-11-15T12:23:32;1.70;;;0.80;;
63394;SDS011;49531;-34.520;150.798;2022-11-15T12:26:11;1.90;;;0.82;;
63394;SDS011;49531;-34.520;150.798;2022-11-15T12:28:52;1.35;;;0.80;;
63394;SDS011;49531;-34.520;150.798;2022-11-15T12:31:33;2.13;;;0.90;;
63394;SDS011;49531;-34.520;150.798;2022-11-15T12:37:47;2.00;;;0.80;;
63394;SDS011;49531;-34.520;150.798;2022-11-15T12:40:18;2.47;;;0.80;;
63394;SDS011;49531;-34.520;150.798;2022-11-15T12:45:48;2.92;;;0.80;;
63394;SDS011;49531;-34.520;150.798;2022-11-15T12:51:15;1.23;;;0.70;;
63394;SDS011;49531;-34.520;150.798;2022-11-15T12:53:43;2.72;;;0.80;;
63394;SDS011;49531;-34.520;150.798;2022-11-15T12:58:51;1.70;;;0.80;;
63394;SDS011;49531;-34.520;150.798;2022-11-15T13:01:52;1.55;;;0.65;;
63394;SDS011;49531;-34.520;150.798;2022-11-15T13:04:23;1.60;;;0.80;;
63394;SDS011;49531;-34.520;150.798;2022-11-15T13:06:58;2.90;;;0.82;;
63394;SDS011;49531;-34.520;150.798;2022-11-15T13:15:32;3.00;;;0.80;;
63394;SDS011;49531;-34.520;150.798;2022-11-15T13:20:54;1.45;;;0.70;;
63394;SDS011;49531;-34.520;150.798;2022-11-15T13:23:22;1.50;;;0.73;;
63394;SDS011;49531;-34.520;150.798;2022-11-15T13:26:10;2.28;;;0.80;;
63394;SDS011;49531;-34.520;150.798;2022-11-15T13:28:45;1.65;;;0.70;;
63394;SDS011;49531;-34.520;150.798;2022-11-15T13:31:19;1.20;;;0.70;;
63394;SDS011;49531;-34.520;150.798;2022-11-15T13:33:56;2.45;;;0.90;;
63394;SDS011;49531;-34.520;150.798;2022-11-15T13:36:29;1.73;;;0.70;;
63394;SDS011;49531;-34.520;150.798;2022-11-15T13:39:02;2.50;;;0.90;;
63394;SDS011;49531;-34.520;150.798;2022-11-15T13:41:32;1.85;;;0.77;;
63394;SDS011;49531;-34.520;150.798;2022-11-15T13:44:02;1.95;;;0.85;;
63394;SDS011;49531;-34.520;150.798;2022-11-15T13:46:45;3.20;;;0.80;;
63394;SDS011;49531;-34.520;150.798;2022-11-15T13:49:13;1.65;;;0.80;;
63394;SDS011;49531;-34.520;150.798;2022-11-15T13:51:45;2.83;;;0.73;;
63394;SDS011;49531;-34.520;150.798;2022-11-15T13:54:30;2.38;;;0.90;;
63394;SDS011;49531;-34.520;150.798;2022-11-15T13:57:12;1.67;;;0.85;;
63394;SDS011;49531;-34.520;150.798;2022-11-15T13:59:47;3.42;;;0.90;;
63394;SDS011;49531;-34.520;150.798;2022-11-15T14:02:27;2.42;;;0.82;;
63394;SDS011;49531;-34.520;150.798;2022-11-15T14:05:03;3.22;;;1.00;;
63394;SDS011;49531;-34.520;150.798;2022-11-15T14:07:55;2.03;;;0.82;;
63394;SDS011;49531;-34.520;150.798;2022-11-15T14:10:25;1.58;;;0.75;;
63394;SDS011;49531;-34.520;150.798;2022-11-15T14:13:02;3.95;;;1.08;;
63394;SDS011;49531;-34.520;150.798;2022-11-15T14:15:34;4.05;;;0.90;;
63394;SDS011;49531;-34.520;150.798;2022-11-15T14:18:04;5.10;;;1.10;;
63394;SDS011;49531;-34.520;150.798;2022-11-15T14:20:34;1.50;;;0.70;;
63394;SDS011;49531;-34.520;150.798;2022-11-15T14:23:18;2.03;;;0.90;;
63394;SDS011;49531;-34.520;150.798;2022-11-15T14:25:55;2.83;;;0.73;;
63394;SDS011;49531;-34.520;150.798;2022-11-15T14:28:29;1.45;;;0.70;;
63394;SDS011;49531;-34.520;150.798;2022-11-15T14:31:04;4.78;;;1.00;;
63394;SDS011;49531;-34.520;150.798;2022-11-15T14:33:39;2.58;;;0.80;;
63394;SDS011;49531;-34.520;150.798;2022-11-15T14:36:13;2.33;;;0.93;;
63394;SDS011;49531;-34.520;150.798;2022-11-15T14:38:44;3.05;;;1.02;;
63394;SDS011;49531;-34.520;150.798;2022-11-15T14:41:18;2.22;;;0.80;;
63394;SDS011;49531;-34.520;150.798;2022-11-15T14:43:49;3.45;;;0.77;;
63394;SDS011;49531;-34.520;150.798;2022-11-15T14:46:17;5.20;;;0.90;;
63394;SDS011;49531;-34.520;150.798;2022-11-15T14:48:46;1.63;;;0.77;;
63394;SDS011;49531;-34.520;150.798;2022-11-15T14:51:15;1.95;;;0.80;;
63394;SDS011;49531;-34.520;150.798;2022-11-15T14:53:45;2.20;;;0.82;;
63394;SDS011;49531;-34.520;150.798;2022-11-15T14:56:14;1.95;;;0.80;;
63394;SDS011;49531;-34.520;150.798;2022-11-15T14:58:42;2.05;;;0.93;;
63394;SDS011;49531;-34.520;150.798;2022-11-15T15:01:16;2.70;;;0.90;;
63394;SDS011;49531;-34.520;150.798;2022-11-15T15:03:47;2.33;;;0.80;;
63394;SDS011;49531;-34.520;150.798;2022-11-15T15:06:18;3.20;;;0.90;;
63394;SDS011;49531;-34.520;150.798;2022-11-15T15:08:46;2.42;;;0.90;;
63394;SDS011;49531;-34.520;150.798;2022-11-15T15:11:21;1.88;;;0.82;;
63394;SDS011;49531;-34.520;150.798;2022-11-15T15:13:52;2.78;;;0.77;;
63394;SDS011;49531;-34.520;150.798;2022-11-15T15:16:23;3.08;;;0.90;;
63394;SDS011;49531;-34.520;150.798;2022-11-15T15:18:51;2.42;;;0.90;;
63394;SDS011;49531;-34.520;150.798;2022-11-15T15:21:21;3.45;;;0.90;;
63394;SDS011;49531;-34.520;150.798;2022-11-15T15:23:51;2.22;;;1.02;;
63394;SDS011;49531;-34.520;150.798;2022-11-15T15:26:20;3.42;;;1.00;;
63394;SDS011;49531;-34.520;150.798;2022-11-15T15:28:49;1.70;;;0.90;;
63394;SDS011;49531;-34.520;150.798;2022-11-15T15:31:18;1.77;;;0.77;;
63394;SDS011;49531;-34.520;150.798;2022-11-15T15:33:46;2.60;;;0.90;;